sensor_id;sensor_type;location;lat;lon;timestamp;P1;durP1;ratioP1;P2;durP2;ratioP2
25443;SDS011;13368;52.346;4.678;2023-03-14T00:00:00;17.2;;;4.2;;
25443;SDS011;13368;52.346;4.678;2023-03-14T00:05:00;15.5;;;4.2;;
25443;SDS011;13368;52.346;4.678;2023-03-14T00:10:00;19.6;;;4.1;;
25443;SDS011;13368;52.346;4.678;2023-03-14T00:15:00;11.4;;;3.9;;
25443;SDS011;13368;52.346;4.678;2023-03-14T00:20:00;17.7;;;4.0;;
25443;SDS011;13368;52.346;4.678;2023-03-14T00:25:00;19.1;;;4.2;;
25443;SDS011;13368;52.346;4.678;2023-03-14T00:30:00;13.9;;;3.1;;
25443;SDS011;13368;52.346;4.678;2023-03-14T00:35:00;17.0;;;4.2;;
25443;SDS011;13368;52.346;4.678;2023-03-14T00:40:00;14.9;;;3.8;;
25443;SDS011;13368;52.346;4.678;2023-03-14T00:45:00;19.8;;;4.9;;
25443;SDS011;13368;52.346;4.678;2023-03-14T00:50:00;15.7;;;4.3;;
25443;SDS011;13368;52.346;4.678;2023-03-14T00:55:00;15.4;;;4.1;;
25443;SDS011;13368;52.346;4.678;2023-03-14T01:00:00;18.7;;;4.8;;
25443;SDS011;13368;52.346;4.678;2023-03-14T01:05:00;19.9;;;4.8;;
25443;SDS011;13368;52.346;4.678;2023-03-14T01:10:00;19.8;;;5.2;;
25443;SDS011;13368;52.346;4.678;2023-03-14T01:15:00;17.3;;;5.4;;
25443;SDS011;13368;52.346;4.678;2023-03-14T01:20:00;27.1;;;6.0;;
25443;SDS011;13368;52.346;4.678;2023-03-14T01:25:00;23.6;;;5.5;;
25443;SDS011;13368;52.346;4.678;2023-03-14T01:30:00;23.9;;;5.9;;
25443;SDS011;13368;52.346;4.678;2023-03-14T01:35:00;24.8;;;5.2;;
25443;SDS011;13368;52.346;4.678;2023-03-14T01:40:00;28.0;;;5.3;;
25443;SDS011;13368;52.346;4.678;2023-03-14T01:45:00;21.9;;;5.4;;
25443;SDS011;13368;52.346;4.678;2023-03-14T01:50:02;20.5;;;4.0;;
25443;SDS011;13368;52.346;4.678;2023-03-14T01:55:02;31.4;;;6.8;;
25443;SDS011;13368;52.346;4.678;2023-03-14T02:00:00;22.9;;;4.9;;
25443;SDS011;13368;52.346;4.678;2023-03-14T02:05:00;20.8;;;4.9;;
25443;SDS011;13368;52.346;4.678;2023-03-14T02:10:00;19.3;;;4.7;;
25443;SDS011;13368;52.346;4.678;2023-03-14T02:15:00;19.9;;;4.2;;
25443;SDS011;13368;52.346;4.678;2023-03-14T02:20:05;20.3;;;4.6;;
25443;SDS011;13368;52.346;4.678;2023-03-14T02:25:02;15.1;;;3.9;;
25443;SDS011;13368;52.346;4.678;2023-03-14T02:30:01;18.1;;;4.3;;
25443;SDS011;13368;52.346;4.678;2023-03-14T02:35:00;15.7;;;4.5;;
25443;SDS011;13368;52.346;4.678;2023-03-14T02:40:00;15.6;;;4.2;;
25443;SDS011;13368;52.346;4.678;2023-03-14T02:45:01;18.9;;;4.6;;
25443;SDS011;13368;52.346;4.678;2023-03-14T02:50:01;18.6;;;4.4;;
25443;SDS011;13368;52.346;4.678;2023-03-14T02:55:00;20.2;;;4.7;;
25443;SDS011;13368;52.346;4.678;2023-03-14T03:00:00;17.8;;;5.6;;
25443;SDS011;13368;52.346;4.678;2023-03-14T03:05:00;15.8;;;4.0;;
25443;SDS011;13368;52.346;4.678;2023-03-14T03:10:00;16.8;;;4.0;;
25443;SDS011;13368;52.346;4.678;2023-03-14T03:15:00;12.2;;;3.5;;
25443;SDS011;13368;52.346;4.678;2023-03-14T03:20:00;13.1;;;4.0;;
25443;SDS011;13368;52.346;4.678;2023-03-14T03:25:00;18.6;;;4.4;;
25443;SDS011;13368;52.346;4.678;2023-03-14T03:30:00;14.2;;;4.2;;
25443;SDS011;13368;52.346;4.678;2023-03-14T03:35:01;14.4;;;5.0;;
25443;SDS011;13368;52.346;4.678;2023-03-14T03:40:00;14.1;;;4.8;;
25443;SDS011;13368;52.346;4.678;2023-03-14T03:45:00;14.5;;;5.1;;
25443;SDS011;13368;52.346;4.678;2023-03-14T03:50:00;18.8;;;4.8;;
25443;SDS011;13368;52.346;4.678;2023-03-14T03:55:00;16.9;;;5.5;;
25443;SDS011;13368;52.346;4.678;2023-03-14T04:00:00;12.9;;;5.0;;
25443;SDS011;13368;52.346;4.678;2023-03-14T04:05:00;12.8;;;6.0;;
25443;SDS011;13368;52.346;4.678;2023-03-14T04:10:00;21.5;;;5.9;;
25443;SDS011;13368;52.346;4.678;2023-03-14T04:15:00;14.3;;;5.6;;
25443;SDS011;13368;52.346;4.678;2023-03-14T04:20:00;16.5;;;5.3;;
25443;SDS011;13368;52.346;4.678;2023-03-14T04:25:00;15.0;;;4.8;;
25443;SDS011;13368;52.346;4.678;2023-03-14T04:30:00;14.9;;;5.7;;
25443;SDS011;13368;52.346;4.678;2023-03-14T04:35:00;13.6;;;5.7;;
25443;SDS011;13368;52.346;4.678;2023-03-14T04:40:00;14.5;;;5.9;;
25443;SDS011;13368;52.346;4.678;2023-03-14T04:45:00;13.7;;;5.9;;
25443;SDS011;13368;52.346;4.678;2023-03-14T04:50:00;12.2;;;5.0;;
25443;SDS011;13368;52.346;4.678;2023-03-14T04:55:00;14.2;;;5.3;;
25443;SDS011;13368;52.346;4.678;2023-03-14T05:00:00;12.9;;;4.9;;
25443;SDS011;13368;52.346;4.678;2023-03-14T05:05:00;13.5;;;5.0;;
25443;SDS011;13368;52.346;4.678;2023-03-14T05:10:00;18.0;;;5.1;;
25443;SDS011;13368;52.346;4.678;2023-03-14T05:15:00;14.1;;;5.8;;
25443;SDS011;13368;52.346;4.678;2023-03-14T05:20:00;9.9;;;3.8;;
25443;SDS011;13368;52.346;4.678;2023-03-14T05:25:00;11.3;;;4.5;;
25443;SDS011;13368;52.346;4.678;2023-03-14T05:30:00;12.3;;;4.4;;
25443;SDS011;13368;52.346;4.678;2023-03-14T05:35:00;8.2;;;3.0;;
25443;SDS011;13368;52.346;4.678;2023-03-14T05:40:00;7.9;;;2.1;;
25443;SDS011;13368;52.346;4.678;2023-03-14T05:45:00;6.9;;;2.8;;
25443;SDS011;13368;52.346;4.678;2023-03-14T05:50:00;7.0;;;2.5;;
25443;SDS011;13368;52.346;4.678;2023-03-14T05:55:00;8.1;;;2.8;;
25443;SDS011;13368;52.346;4.678;2023-03-14T06:00:00;7.1;;;2.8;;
25443;SDS011;13368;52.346;4.678;2023-03-14T06:05:00;8.5;;;2.8;;
25443;SDS011;13368;52.346;4.678;2023-03-14T06:10:00;6.2;;;2.6;;
25443;SDS011;13368;52.346;4.678;2023-03-14T06:15:00;8.4;;;2.7;;
25443;SDS011;13368;52.346;4.678;2023-03-14T06:20:00;7.5;;;1.9;;
25443;SDS011;13368;52.346;4.678;2023-03-14T06:25:00;8.5;;;2.0;;
25443;SDS011;13368;52.346;4.678;2023-03-14T06:30:00;6.7;;;2.3;;
25443;SDS011;13368;52.346;4.678;2023-03-14T06:35:00;4.1;;;1.8;;
25443;SDS011;13368;52.346;4.678;2023-03-14T06:40:00;3.4;;;1.7;;
25443;SDS011;13368;52.346;4.678;2023-03-14T06:45:00;6.3;;;2.0;;
25443;SDS011;13368;52.346;4.678;2023-03-14T06:50:00;6.0;;;2.1;;
25443;SDS011;13368;52.346;4.678;2023-03-14T06:55:00;6.8;;;2.4;;
25443;SDS011;13368;52.346;4.678;2023-03-14T07:00:00;5.1;;;2.1;;
25443;SDS011;13368;52.346;4.678;2023-03-14T07:05:00;7.8;;;2.0;;
25443;SDS011;13368;52.346;4.678;2023-03-14T07:10:00;9.8;;;2.4;;
25443;SDS011;13368;52.346;4.678;2023-03-14T07:15:00;11.5;;;2.9;;
25443;SDS011;13368;52.346;4.678;2023-03-14T07:20:00;12.1;;;2.9;;
25443;SDS011;13368;52.346;4.678;2023-03-14T07:25:00;5.4;;;2.0;;
25443;SDS011;13368;52.346;4.678;2023-03-14T07:30:00;5.8;;;1.8;;
25443;SDS011;13368;52.346;4.678;2023-03-14T07:35:00;8.0;;;2.1;;
25443;SDS011;13368;52.346;4.678;2023-03-14T07:40:00;5.0;;;1.6;;
25443;SDS011;13368;52.346;4.678;2023-03-14T07:45:00;5.1;;;1.7;;
25443;SDS011;13368;52.346;4.678;2023-03-14T07:50:00;6.2;;;2.0;;
25443;SDS011;13368;52.346;4.678;2023-03-14T07:55:00;6.9;;;2.2;;
25443;SDS011;13368;52.346;4.678;2023-03-14T08:00:00;6.6;;;2.1;;
25443;SDS011;13368;52.346;4.678;2023-03-14T08:05:00;5.0;;;2.2;;
25443;SDS011;13368;52.346;4.678;2023-03-14T08:10:00;5.9;;;1.9;;
25443;SDS011;13368;52.346;4.678;2023-03-14T08:15:00;7.3;;;2.3;;
25443;SDS011;13368;52.346;4.678;2023-03-14T08:20:00;10.1;;;2.1;;
25443;SDS011;13368;52.346;4.678;2023-03-14T08:25:00;10.0;;;2.4;;
25443;SDS011;13368;52.346;4.678;2023-03-14T08:30:00;13.6;;;3.5;;
25443;SDS011;13368;52.346;4.678;2023-03-14T08:35:00;14.4;;;3.2;;
25443;SDS011;13368;52.346;4.678;2023-03-14T08:40:00;15.7;;;3.3;;
25443;SDS011;13368;52.346;4.678;2023-03-14T08:45:00;8.5;;;2.8;;
25443;SDS011;13368;52.346;4.678;2023-03-14T08:50:00;16.4;;;3.5;;
25443;SDS011;13368;52.346;4.678;2023-03-14T08:55:00;17.9;;;4.4;;
25443;SDS011;13368;52.346;4.678;2023-03-14T09:00:00;14.2;;;3.7;;
25443;SDS011;13368;52.346;4.678;2023-03-14T09:05:00;10.2;;;3.2;;
25443;SDS011;13368;52.346;4.678;2023-03-14T09:10:00;13.3;;;3.0;;
25443;SDS011;13368;52.346;4.678;2023-03-14T09:15:00;18.3;;;4.3;;
25443;SDS011;13368;52.346;4.678;2023-03-14T09:20:00;11.4;;;3.1;;
25443;SDS011;13368;52.346;4.678;2023-03-14T09:25:00;11.8;;;3.7;;
25443;SDS011;13368;52.346;4.678;2023-03-14T09:30:00;15.1;;;3.6;;
25443;SDS011;13368;52.346;4.678;2023-03-14T09:35:00;20.7;;;3.8;;
25443;SDS011;13368;52.346;4.678;2023-03-14T09:40:00;15.6;;;3.6;;
25443;SDS011;13368;52.346;4.678;2023-03-14T09:45:00;18.6;;;4.2;;
25443;SDS011;13368;52.346;4.678;2023-03-14T09:50:00;21.2;;;3.8;;
25443;SDS011;13368;52.346;4.678;2023-03-14T09:55:01;26.0;;;5.1;;
25443;SDS011;13368;52.346;4.678;2023-03-14T10:00:00;13.4;;;3.8;;
25443;SDS011;13368;52.346;4.678;2023-03-14T10:05:00;25.2;;;4.4;;
25443;SDS011;13368;52.346;4.678;2023-03-14T10:10:00;21.6;;;4.4;;
25443;SDS011;13368;52.346;4.678;2023-03-14T10:15:02;14.5;;;3.2;;
25443;SDS011;13368;52.346;4.678;2023-03-14T10:20:00;15.0;;;3.7;;
25443;SDS011;13368;52.346;4.678;2023-03-14T10:25:01;16.1;;;3.5;;
25443;SDS011;13368;52.346;4.678;2023-03-14T10:30:00;23.8;;;4.3;;
25443;SDS011;13368;52.346;4.678;2023-03-14T10:35:04;14.4;;;3.1;;
25443;SDS011;13368;52.346;4.678;2023-03-14T10:40:00;17.2;;;3.6;;
25443;SDS011;13368;52.346;4.678;2023-03-14T10:45:00;11.0;;;3.0;;
25443;SDS011;13368;52.346;4.678;2023-03-14T10:50:18;15.1;;;3.6;;
25443;SDS011;13368;52.346;4.678;2023-03-14T10:55:01;13.9;;;3.6;;
25443;SDS011;13368;52.346;4.678;2023-03-14T11:00:00;14.5;;;3.4;;
25443;SDS011;13368;52.346;4.678;2023-03-14T11:05:03;15.4;;;2.9;;
25443;SDS011;13368;52.346;4.678;2023-03-14T11:10:01;12.0;;;3.3;;
25443;SDS011;13368;52.346;4.678;2023-03-14T11:15:01;12.5;;;3.8;;
25443;SDS011;13368;52.346;4.678;2023-03-14T11:20:04;14.7;;;3.7;;
25443;SDS011;13368;52.346;4.678;2023-03-14T11:25:03;37.7;;;4.5;;
25443;SDS011;13368;52.346;4.678;2023-03-14T11:30:01;16.6;;;3.4;;
25443;SDS011;13368;52.346;4.678;2023-03-14T11:35:01;8.9;;;3.0;;
25443;SDS011;13368;52.346;4.678;2023-03-14T11:40:01;14.7;;;3.0;;
25443;SDS011;13368;52.346;4.678;2023-03-14T11:45:00;9.5;;;3.2;;
25443;SDS011;13368;52.346;4.678;2023-03-14T11:50:01;9.1;;;3.2;;
25443;SDS011;13368;52.346;4.678;2023-03-14T11:55:00;9.3;;;2.9;;
25443;SDS011;13368;52.346;4.678;2023-03-14T12:00:00;7.9;;;2.3;;
25443;SDS011;13368;52.346;4.678;2023-03-14T12:10:01;8.6;;;3.0;;
25443;SDS011;13368;52.346;4.678;2023-03-14T12:15:00;11.8;;;3.1;;
25443;SDS011;13368;52.346;4.678;2023-03-14T12:20:00;8.3;;;2.7;;
25443;SDS011;13368;52.346;4.678;2023-03-14T12:25:01;8.3;;;2.5;;
25443;SDS011;13368;52.346;4.678;2023-03-14T12:30:00;10.7;;;2.9;;
25443;SDS011;13368;52.346;4.678;2023-03-14T12:35:06;9.4;;;2.4;;
25443;SDS011;13368;52.346;4.678;2023-03-14T12:40:03;6.6;;;2.4;;
25443;SDS011;13368;52.346;4.678;2023-03-14T12:50:00;12.4;;;2.3;;
25443;SDS011;13368;52.346;4.678;2023-03-14T12:55:00;6.9;;;2.4;;
25443;SDS011;13368;52.346;4.678;2023-03-14T13:00:00;7.9;;;2.2;;
25443;SDS011;13368;52.346;4.678;2023-03-14T13:05:02;6.0;;;2.7;;
25443;SDS011;13368;52.346;4.678;2023-03-14T13:10:00;13.8;;;3.6;;
25443;SDS011;13368;52.346;4.678;2023-03-14T13:15:00;8.7;;;2.6;;
25443;SDS011;13368;52.346;4.678;2023-03-14T13:20:01;7.4;;;2.0;;
25443;SDS011;13368;52.346;4.678;2023-03-14T13:25:00;5.7;;;1.9;;
25443;SDS011;13368;52.346;4.678;2023-03-14T13:30:04;11.7;;;2.5;;
25443;SDS011;13368;52.346;4.678;2023-03-14T13:35:00;10.5;;;2.6;;
25443;SDS011;13368;52.346;4.678;2023-03-14T13:40:00;6.2;;;2.1;;
25443;SDS011;13368;52.346;4.678;2023-03-14T13:45:00;9.4;;;2.3;;
25443;SDS011;13368;52.346;4.678;2023-03-14T13:50:00;11.9;;;2.9;;
25443;SDS011;13368;52.346;4.678;2023-03-14T13:55:00;12.6;;;2.9;;
25443;SDS011;13368;52.346;4.678;2023-03-14T14:00:00;13.1;;;2.8;;
25443;SDS011;13368;52.346;4.678;2023-03-14T14:05:00;8.3;;;2.4;;
25443;SDS011;13368;52.346;4.678;2023-03-14T14:10:00;10.0;;;2.2;;
25443;SDS011;13368;52.346;4.678;2023-03-14T14:15:00;8.5;;;2.8;;
25443;SDS011;13368;52.346;4.678;2023-03-14T14:20:00;6.3;;;2.0;;
25443;SDS011;13368;52.346;4.678;2023-03-14T14:25:00;8.1;;;2.5;;
25443;SDS011;13368;52.346;4.678;2023-03-14T14:30:00;9.8;;;4.4;;
25443;SDS011;13368;52.346;4.678;2023-03-14T14:35:00;7.2;;;2.5;;
25443;SDS011;13368;52.346;4.678;2023-03-14T14:40:01;10.2;;;2.5;;
25443;SDS011;13368;52.346;4.678;2023-03-14T14:45:01;14.8;;;2.6;;
25443;SDS011;13368;52.346;4.678;2023-03-14T14:50:02;5.1;;;2.1;;
25443;SDS011;13368;52.346;4.678;2023-03-14T14:55:00;8.5;;;3.0;;
25443;SDS011;13368;52.346;4.678;2023-03-14T15:00:00;7.3;;;2.3;;
25443;SDS011;13368;52.346;4.678;2023-03-14T15:05:00;12.0;;;2.8;;
25443;SDS011;13368;52.346;4.678;2023-03-14T15:10:00;8.8;;;2.7;;
25443;SDS011;13368;52.346;4.678;2023-03-14T15:15:00;9.7;;;2.2;;
25443;SDS011;13368;52.346;4.678;2023-03-14T15:20:00;8.4;;;2.7;;
25443;SDS011;13368;52.346;4.678;2023-03-14T15:25:00;9.2;;;2.7;;
25443;SDS011;13368;52.346;4.678;2023-03-14T15:30:00;9.7;;;2.7;;
25443;SDS011;13368;52.346;4.678;2023-03-14T15:35:00;16.8;;;3.6;;
25443;SDS011;13368;52.346;4.678;2023-03-14T15:40:00;8.4;;;2.7;;
25443;SDS011;13368;52.346;4.678;2023-03-14T15:45:00;7.4;;;1.9;;
25443;SDS011;13368;52.346;4.678;2023-03-14T15:50:00;8.7;;;1.8;;
25443;SDS011;13368;52.346;4.678;2023-03-14T15:55:00;11.7;;;2.7;;
25443;SDS011;13368;52.346;4.678;2023-03-14T16:00:00;7.7;;;2.3;;
25443;SDS011;13368;52.346;4.678;2023-03-14T16:05:00;6.8;;;2.2;;
25443;SDS011;13368;52.346;4.678;2023-03-14T16:10:00;6.9;;;2.2;;
25443;SDS011;13368;52.346;4.678;2023-03-14T16:15:00;6.3;;;2.5;;
25443;SDS011;13368;52.346;4.678;2023-03-14T16:20:00;8.1;;;2.6;;
25443;SDS011;13368;52.346;4.678;2023-03-14T16:25:00;11.6;;;4.4;;
25443;SDS011;13368;52.346;4.678;2023-03-14T16:30:00;9.9;;;2.8;;
25443;SDS011;13368;52.346;4.678;2023-03-14T16:35:00;11.1;;;2.6;;
25443;SDS011;13368;52.346;4.678;2023-03-14T16:40:00;7.3;;;2.4;;
25443;SDS011;13368;52.346;4.678;2023-03-14T16:45:00;9.0;;;3.2;;
25443;SDS011;13368;52.346;4.678;2023-03-14T16:50:00;11.3;;;2.1;;
25443;SDS011;13368;52.346;4.678;2023-03-14T16:55:00;7.6;;;2.4;;
25443;SDS011;13368;52.346;4.678;2023-03-14T17:00:00;9.5;;;2.6;;
25443;SDS011;13368;52.346;4.678;2023-03-14T17:05:00;6.8;;;2.4;;
25443;SDS011;13368;52.346;4.678;2023-03-14T17:10:00;6.7;;;2.4;;
25443;SDS011;13368;52.346;4.678;2023-03-14T17:15:00;9.8;;;2.2;;
25443;SDS011;13368;52.346;4.678;2023-03-14T17:20:00;14.1;;;4.4;;
25443;SDS011;13368;52.346;4.678;2023-03-14T17:25:00;8.4;;;2.6;;
25443;SDS011;13368;52.346;4.678;2023-03-14T17:30:00;7.5;;;2.0;;
25443;SDS011;13368;52.346;4.678;2023-03-14T17:35:00;8.3;;;2.7;;
25443;SDS011;13368;52.346;4.678;2023-03-14T17:40:00;10.0;;;2.9;;
25443;SDS011;13368;52.346;4.678;2023-03-14T17:45:00;9.0;;;2.9;;
25443;SDS011;13368;52.346;4.678;2023-03-14T17:50:00;8.7;;;2.9;;
25443;SDS011;13368;52.346;4.678;2023-03-14T17:55:00;12.3;;;3.1;;
25443;SDS011;13368;52.346;4.678;2023-03-14T18:00:00;13.3;;;3.2;;
25443;SDS011;13368;52.346;4.678;2023-03-14T18:05:00;11.9;;;2.7;;
25443;SDS011;13368;52.346;4.678;2023-03-14T18:10:00;9.9;;;2.5;;
25443;SDS011;13368;52.346;4.678;2023-03-14T18:15:00;15.2;;;3.3;;
25443;SDS011;13368;52.346;4.678;2023-03-14T18:20:00;6.5;;;3.1;;
25443;SDS011;13368;52.346;4.678;2023-03-14T18:25:00;10.6;;;3.2;;
25443;SDS011;13368;52.346;4.678;2023-03-14T18:30:00;11.2;;;3.6;;
25443;SDS011;13368;52.346;4.678;2023-03-14T18:35:00;19.7;;;4.9;;
25443;SDS011;13368;52.346;4.678;2023-03-14T18:40:00;9.4;;;3.2;;
25443;SDS011;13368;52.346;4.678;2023-03-14T18:45:00;8.1;;;3.2;;
25443;SDS011;13368;52.346;4.678;2023-03-14T18:50:00;8.8;;;3.0;;
25443;SDS011;13368;52.346;4.678;2023-03-14T18:55:00;10.8;;;3.4;;
25443;SDS011;13368;52.346;4.678;2023-03-14T19:00:00;14.4;;;5.1;;
25443;SDS011;13368;52.346;4.678;2023-03-14T19:05:00;12.4;;;3.2;;
25443;SDS011;13368;52.346;4.678;2023-03-14T19:10:00;16.4;;;4.2;;
25443;SDS011;13368;52.346;4.678;2023-03-14T19:15:00;7.4;;;3.4;;
25443;SDS011;13368;52.346;4.678;2023-03-14T19:20:00;12.1;;;3.8;;
25443;SDS011;13368;52.346;4.678;2023-03-14T19:25:00;12.4;;;3.4;;
25443;SDS011;13368;52.346;4.678;2023-03-14T19:30:00;12.8;;;3.2;;
25443;SDS011;13368;52.346;4.678;2023-03-14T19:35:00;12.2;;;3.4;;
25443;SDS011;13368;52.346;4.678;2023-03-14T19:40:00;8.3;;;2.9;;
25443;SDS011;13368;52.346;4.678;2023-03-14T19:45:00;6.1;;;2.4;;
25443;SDS011;13368;52.346;4.678;2023-03-14T19:50:00;10.4;;;3.4;;
25443;SDS011;13368;52.346;4.678;2023-03-14T19:55:00;10.1;;;3.3;;
25443;SDS011;13368;52.346;4.678;2023-03-14T20:00:00;6.0;;;2.9;;
25443;SDS011;13368;52.346;4.678;2023-03-14T20:05:00;8.1;;;2.7;;
25443;SDS011;13368;52.346;4.678;2023-03-14T20:10:00;5.8;;;2.7;;
25443;SDS011;13368;52.346;4.678;2023-03-14T20:15:00;5.7;;;3.0;;
25443;SDS011;13368;52.346;4.678;2023-03-14T20:20:00;10.6;;;2.9;;
25443;SDS011;13368;52.346;4.678;2023-03-14T20:25:00;6.7;;;2.7;;
25443;SDS011;13368;52.346;4.678;2023-03-14T20:30:00;6.6;;;2.6;;
25443;SDS011;13368;52.346;4.678;2023-03-14T20:35:00;11.0;;;2.8;;
25443;SDS011;13368;52.346;4.678;2023-03-14T20:40:00;8.0;;;3.1;;
25443;SDS011;13368;52.346;4.678;2023-03-14T20:45:00;7.5;;;2.5;;
25443;SDS011;13368;52.346;4.678;2023-03-14T20:50:00;7.9;;;3.0;;
25443;SDS011;13368;52.346;4.678;2023-03-14T20:55:00;8.2;;;4.2;;
25443;SDS011;13368;52.346;4.678;2023-03-14T21:00:00;8.0;;;2.9;;
25443;SDS011;13368;52.346;4.678;2023-03-14T21:05:00;8.1;;;2.6;;
25443;SDS011;13368;52.346;4.678;2023-03-14T21:10:00;7.9;;;2.9;;
25443;SDS011;13368;52.346;4.678;2023-03-14T21:15:00;8.3;;;2.8;;
25443;SDS011;13368;52.346;4.678;2023-03-14T21:20:00;10.6;;;2.8;;
25443;SDS011;13368;52.346;4.678;2023-03-14T21:25:00;8.8;;;2.3;;
25443;SDS011;13368;52.346;4.678;2023-03-14T21:30:00;5.9;;;2.2;;
25443;SDS011;13368;52.346;4.678;2023-03-14T21:35:00;5.7;;;2.2;;
25443;SDS011;13368;52.346;4.678;2023-03-14T21:40:00;7.3;;;2.8;;
25443;SDS011;13368;52.346;4.678;2023-03-14T21:45:00;4.9;;;1.8;;
25443;SDS011;13368;52.346;4.678;2023-03-14T21:50:00;4.8;;;3.1;;
25443;SDS011;13368;52.346;4.678;2023-03-14T21:55:00;11.5;;;2.6;;
25443;SDS011;13368;52.346;4.678;2023-03-14T22:00:00;8.2;;;2.5;;
25443;SDS011;13368;52.346;4.678;2023-03-14T22:05:00;8.2;;;2.3;;
25443;SDS011;13368;52.346;4.678;2023-03-14T22:10:00;13.6;;;4.1;;
25443;SDS011;13368;52.346;4.678;2023-03-14T22:15:00;6.3;;;2.6;;
25443;SDS011;13368;52.346;4.678;2023-03-14T22:20:00;6.6;;;2.1;;
25443;SDS011;13368;52.346;4.678;2023-03-14T22:25:00;2.2;;;1.5;;
25443;SDS011;13368;52.346;4.678;2023-03-14T22:30:00;7.4;;;2.4;;
25443;SDS011;13368;52.346;4.678;2023-03-14T22:35:00;3.7;;;1.7;;
25443;SDS011;13368;52.346;4.678;2023-03-14T22:40:00;5.3;;;1.9;;
25443;SDS011;13368;52.346;4.678;2023-03-14T22:45:00;3.1;;;1.6;;
25443;SDS011;13368;52.346;4.678;2023-03-14T22:50:00;7.1;;;1.8;;
25443;SDS011;13368;52.346;4.678;2023-03-14T22:55:00;5.7;;;1.7;;
25443;SDS011;13368;52.346;4.678;2023-03-14T23:00:00;5.2;;;2.8;;
25443;SDS011;13368;52.346;4.678;2023-03-14T23:05:00;3.6;;;1.6;;
25443;SDS011;13368;52.346;4.678;2023-03-14T23:10:00;5.5;;;2.1;;
25443;SDS011;13368;52.346;4.678;2023-03-14T23:15:00;3.6;;;1.5;;
25443;SDS011;13368;52.346;4.678;2023-03-14T23:20:00;7.0;;;1.8;;
25443;SDS011;13368;52.346;4.678;2023-03-14T23:25:00;3.5;;;2.0;;
25443;SDS011;13368;52.346;4.678;2023-03-14T23:30:00;8.0;;;2.2;;
25443;SDS011;13368;52.346;4.678;2023-03-14T23:35:00;8.0;;;1.9;;
25443;SDS011;13368;52.346;4.678;2023-03-14T23:40:00;5.8;;;2.0;;
25443;SDS011;13368;52.346;4.678;2023-03-14T23:45:00;4.2;;;1.9;;
25443;SDS011;13368;52.346;4.678;2023-03-14T23:50:00;3.5;;;2.2;;
25443;SDS011;13368;52.346;4.678;2023-03-14T23:55:00;6.4;;;2.1;;
